Time;durP1;ratioP1;P1;durP2;ratioP2;P2;SDS_P1;SDS_P2;PMS_P1;PMS_P2;Temp;Humidity;BMP_temperature;BMP_pressure;BME280_temperature;BME280_humidity;BME280_pressure;Samples;Min_cycle;Max_cycle;Signal;HPM_P1;HPM_P2
2023/11/18 00:00:49;;;;;;;71.40;10.85;;;;;;;;;;5005742;28;20555;-58
2023/11/18 00:03:14;;;;;;;145.05;13.40;;;;;;;;;;5005510;28;20025;-56
2023/11/18 00:05:39;;;;;;;62.42;10.00;;;;;;;;;;5006883;28;20041;-58
2023/11/18 00:08:04;;;;;;;81.32;12.00;;;;;;;;;;5006308;28;20025;-58
2023/11/18 00:10:30;;;;;;;95.95;12.60;;;;;;;;;;5005073;28;20985;-56
2023/11/18 00:12:55;;;;;;;92.40;12.35;;;;;;;;;;5007249;28;20033;-58
2023/11/18 00:15:20;;;;;;;116.10;13.55;;;;;;;;;;5004601;28;20017;-57
2023/11/18 00:17:46;;;;;;;111.70;9.80;;;;;;;;;;5006500;28;20431;-58
2023/11/18 00:20:13;;;;;;;149.55;14.80;;;;;;;;;;5004743;28;20079;-57
2023/11/18 00:22:39;;;;;;;103.47;12.68;;;;;;;;;;5007233;28;20109;-58
2023/11/18 00:25:05;;;;;;;128.25;14.45;;;;;;;;;;5006948;28;20101;-58
2023/11/18 00:27:31;;;;;;;153.60;15.05;;;;;;;;;;5005842;28;21215;-57
2023/11/18 00:29:56;;;;;;;122.45;12.98;;;;;;;;;;5005450;28;20028;-58
2023/11/18 00:32:21;;;;;;;164.38;15.35;;;;;;;;;;5002963;28;20791;-59
2023/11/18 00:34:47;;;;;;;100.40;13.20;;;;;;;;;;5005034;28;20034;-58
2023/11/18 00:37:12;;;;;;;54.30;8.57;;;;;;;;;;5006384;28;20030;-58
2023/11/18 00:39:37;;;;;;;81.78;10.43;;;;;;;;;;5006115;28;20025;-58
2023/11/18 00:42:03;;;;;;;115.57;13.45;;;;;;;;;;5004182;28;20061;-58
2023/11/18 00:44:28;;;;;;;91.78;11.10;;;;;;;;;;5004811;28;20080;-59
2023/11/18 00:46:53;;;;;;;80.88;13.23;;;;;;;;;;5005885;28;20041;-57
2023/11/18 00:49:19;;;;;;;159.02;15.15;;;;;;;;;;5005800;28;20100;-56
2023/11/18 00:51:44;;;;;;;131.63;13.88;;;;;;;;;;5004369;28;20155;-58
2023/11/18 00:54:11;;;;;;;89.45;12.32;;;;;;;;;;5005191;28;20049;-57
2023/11/18 00:56:36;;;;;;;109.88;13.20;;;;;;;;;;5004714;28;20630;-57
2023/11/18 00:59:01;;;;;;;112.57;12.20;;;;;;;;;;5005459;28;20110;-57
2023/11/18 01:01:27;;;;;;;157.35;16.10;;;;;;;;;;5004945;28;20041;-56
2023/11/18 01:03:53;;;;;;;119.15;12.45;;;;;;;;;;5005417;28;20029;-58
2023/11/18 01:06:18;;;;;;;164.85;16.13;;;;;;;;;;5004892;28;20666;-57
2023/11/18 01:08:44;;;;;;;73.80;11.73;;;;;;;;;;5007991;28;20021;-58
2023/11/18 01:11:10;;;;;;;97.57;13.30;;;;;;;;;;5008182;28;20049;-57
2023/11/18 01:13:35;;;;;;;134.65;13.18;;;;;;;;;;5007258;28;20032;-58
2023/11/18 01:16:01;;;;;;;83.93;11.27;;;;;;;;;;5008485;28;20444;-58
2023/11/18 01:18:27;;;;;;;107.45;12.98;;;;;;;;;;5008580;28;20049;-58
2023/11/18 01:20:52;;;;;;;108.03;11.80;;;;;;;;;;5009301;28;20497;-58
2023/11/18 01:23:17;;;;;;;121.85;12.32;;;;;;;;;;5007884;28;20073;-57
2023/11/18 01:25:43;;;;;;;78.10;10.43;;;;;;;;;;5008537;28;20030;-58
2023/11/18 01:28:09;;;;;;;86.38;12.20;;;;;;;;;;5008507;28;20184;-58
2023/11/18 01:30:34;;;;;;;95.82;10.98;;;;;;;;;;5006575;28;20112;-58
2023/11/18 01:33:00;;;;;;;98.05;11.73;;;;;;;;;;5008723;28;20033;-57
2023/11/18 01:35:26;;;;;;;95.72;11.73;;;;;;;;;;5008783;28;20072;-57
2023/11/18 01:37:51;;;;;;;114.25;12.50;;;;;;;;;;5006954;28;20100;-57
2023/11/18 01:40:17;;;;;;;94.25;11.18;;;;;;;;;;5007451;28;20393;-57
2023/11/18 01:42:44;;;;;;;62.05;9.38;;;;;;;;;;5007807;28;20476;-56
2023/11/18 01:45:11;;;;;;;100.57;11.75;;;;;;;;;;5009691;28;20061;-58
2023/11/18 01:47:37;;;;;;;82.25;10.68;;;;;;;;;;5006930;28;20037;-57
2023/11/18 01:50:05;;;;;;;80.95;11.38;;;;;;;;;;5008150;28;20018;-58
2023/11/18 01:52:31;;;;;;;105.05;12.57;;;;;;;;;;5007752;28;20033;-58
2023/11/18 01:54:56;;;;;;;57.10;9.50;;;;;;;;;;5005988;28;20018;-58
2023/11/18 01:57:21;;;;;;;112.47;12.40;;;;;;;;;;5009719;28;20026;-57
2023/11/18 01:59:47;;;;;;;107.38;11.85;;;;;;;;;;5011558;28;20016;-58
2023/11/18 02:02:13;;;;;;;83.43;11.45;;;;;;;;;;5009946;28;20283;-57
2023/11/18 02:04:38;;;;;;;71.78;11.05;;;;;;;;;;5010903;28;20097;-58
2023/11/18 02:07:08;;;;;;;79.22;10.68;;;;;;;;;;5012394;28;20172;-58
2023/11/18 02:09:34;;;;;;;105.50;12.75;;;;;;;;;;5010328;28;20029;-58
2023/11/18 02:12:20;;;;;;;92.93;12.13;;;;;;;;;;5010672;28;20041;-57
2023/11/18 02:14:45;;;;;;;87.38;12.18;;;;;;;;;;5012122;28;20305;-58
2023/11/18 02:17:12;;;;;;;65.78;8.82;;;;;;;;;;5009988;28;20095;-58
2023/11/18 02:19:39;;;;;;;68.63;10.90;;;;;;;;;;5010917;28;20887;-57
2023/11/18 02:22:07;;;;;;;120.55;10.70;;;;;;;;;;5010921;28;20030;-56
2023/11/18 02:24:42;;;;;;;84.28;10.63;;;;;;;;;;5009737;28;20117;-57
2023/11/18 02:27:07;;;;;;;60.92;8.68;;;;;;;;;;5009608;28;20287;-57
2023/11/18 02:29:36;;;;;;;110.00;11.10;;;;;;;;;;5009821;28;20031;-58
2023/11/18 02:32:08;;;;;;;93.72;11.77;;;;;;;;;;5010997;28;20099;-58
2023/11/18 02:34:36;;;;;;;139.38;13.80;;;;;;;;;;5008833;28;20026;-58
2023/11/18 02:37:03;;;;;;;77.45;8.50;;;;;;;;;;5011318;28;20022;-57
2023/11/18 02:39:42;;;;;;;118.20;10.05;;;;;;;;;;5009196;28;20030;-57
2023/11/18 02:42:09;;;;;;;123.95;12.10;;;;;;;;;;5010665;28;20670;-57
2023/11/18 02:44:37;;;;;;;114.40;12.48;;;;;;;;;;5009304;28;20030;-57
2023/11/18 02:47:05;;;;;;;84.32;11.35;;;;;;;;;;5010483;28;20029;-57
2023/11/18 02:49:30;;;;;;;129.23;13.15;;;;;;;;;;5008396;28;20036;-57
2023/11/18 02:51:55;;;;;;;98.60;11.75;;;;;;;;;;5008956;28;20041;-58
2023/11/18 02:54:21;;;;;;;141.30;12.98;;;;;;;;;;5009257;28;20093;-57
2023/11/18 02:56:46;;;;;;;92.18;10.60;;;;;;;;;;5009415;28;20092;-57
2023/11/18 02:59:12;;;;;;;77.78;8.60;;;;;;;;;;5009403;28;20302;-58
2023/11/18 03:01:39;;;;;;;95.38;8.10;;;;;;;;;;5008355;28;20429;-56
2023/11/18 03:04:05;;;;;;;105.75;11.70;;;;;;;;;;5008308;28;20097;-57
2023/11/18 03:06:32;;;;;;;147.63;12.63;;;;;;;;;;5007781;28;20116;-58
2023/11/18 03:08:57;;;;;;;80.93;10.68;;;;;;;;;;5008521;28;20374;-58
2023/11/18 03:11:22;;;;;;;145.52;12.63;;;;;;;;;;5007381;28;20598;-58
2023/11/18 03:13:47;;;;;;;95.15;10.40;;;;;;;;;;5008315;28;20028;-58
2023/11/18 03:16:13;;;;;;;95.93;10.65;;;;;;;;;;5010620;28;20034;-58
2023/11/18 03:18:39;;;;;;;94.95;10.77;;;;;;;;;;5007357;28;20033;-58
2023/11/18 03:21:06;;;;;;;103.47;9.32;;;;;;;;;;5010057;28;20034;-57
2023/11/18 03:23:32;;;;;;;91.65;8.35;;;;;;;;;;5008298;28;20041;-57
2023/11/18 03:25:57;;;;;;;116.68;11.45;;;;;;;;;;5008254;28;20410;-58
2023/11/18 03:28:23;;;;;;;148.40;12.80;;;;;;;;;;5007487;28;20040;-56
2023/11/18 03:30:48;;;;;;;78.30;10.25;;;;;;;;;;5009998;28;20045;-57
2023/11/18 03:33:14;;;;;;;129.25;10.52;;;;;;;;;;5007378;28;20059;-58
2023/11/18 03:35:39;;;;;;;97.15;11.55;;;;;;;;;;5008373;28;20045;-57
2023/11/18 03:38:04;;;;;;;65.15;10.70;;;;;;;;;;5010920;28;20324;-58
2023/11/18 03:40:29;;;;;;;107.07;10.70;;;;;;;;;;5009098;28;20029;-57
2023/11/18 03:42:55;;;;;;;74.85;8.73;;;;;;;;;;5008392;28;20014;-57
2023/11/18 03:45:20;;;;;;;89.20;10.50;;;;;;;;;;5007557;28;20026;-58
2023/11/18 03:47:47;;;;;;;58.53;9.77;;;;;;;;;;5008821;28;20696;-59
2023/11/18 03:50:13;;;;;;;90.80;10.43;;;;;;;;;;5009201;28;20088;-57
2023/11/18 03:52:38;;;;;;;56.13;7.28;;;;;;;;;;5007891;28;20706;-57
2023/11/18 03:55:04;;;;;;;52.97;8.98;;;;;;;;;;5009474;28;20347;-57
2023/11/18 03:57:29;;;;;;;130.90;11.57;;;;;;;;;;5006913;28;20049;-58
2023/11/18 03:59:55;;;;;;;58.13;8.60;;;;;;;;;;5007159;28;20468;-57
2023/11/18 04:02:20;;;;;;;68.68;6.40;;;;;;;;;;5008666;28;20125;-57
2023/11/18 04:04:45;;;;;;;82.68;9.20;;;;;;;;;;5008851;28;20505;-57
2023/11/18 04:07:10;;;;;;;84.22;7.57;;;;;;;;;;5009400;28;20025;-57
2023/11/18 04:09:36;;;;;;;73.88;7.95;;;;;;;;;;5008187;28;20423;-58
2023/11/18 04:12:01;;;;;;;67.70;9.27;;;;;;;;;;5008548;28;20698;-56
2023/11/18 04:14:26;;;;;;;142.32;11.82;;;;;;;;;;5008443;28;20205;-57
2023/11/18 04:16:52;;;;;;;58.67;8.13;;;;;;;;;;5009730;28;20018;-58
2023/11/18 04:19:17;;;;;;;75.40;8.18;;;;;;;;;;5008288;28;20387;-58
2023/11/18 04:21:47;;;;;;;116.40;10.65;;;;;;;;;;5008960;28;20037;-58
2023/11/18 04:24:12;;;;;;;63.63;8.57;;;;;;;;;;5008595;28;20022;-57
2023/11/18 04:26:38;;;;;;;108.82;10.38;;;;;;;;;;5008765;28;20037;-57
2023/11/18 04:29:04;;;;;;;84.80;10.05;;;;;;;;;;5008006;28;20025;-57
2023/11/18 04:31:29;;;;;;;113.32;9.80;;;;;;;;;;5006555;28;20452;-57
2023/11/18 04:33:55;;;;;;;65.88;8.25;;;;;;;;;;5008432;28;20469;-56
2023/11/18 04:36:22;;;;;;;104.28;9.88;;;;;;;;;;5009005;28;20033;-57
2023/11/18 04:38:47;;;;;;;66.35;8.50;;;;;;;;;;5008246;28;20405;-57
2023/11/18 04:41:12;;;;;;;66.90;9.05;;;;;;;;;;5009159;28;20513;-57
2023/11/18 04:43:39;;;;;;;124.45;10.77;;;;;;;;;;5007367;28;20097;-57
2023/11/18 04:46:05;;;;;;;87.68;8.55;;;;;;;;;;5008308;28;20033;-58
2023/11/18 04:48:31;;;;;;;99.10;10.23;;;;;;;;;;5007118;28;20021;-57
2023/11/18 04:50:56;;;;;;;65.45;6.15;;;;;;;;;;5008244;28;20452;-56
2023/11/18 04:53:21;;;;;;;114.07;10.98;;;;;;;;;;5009759;28;20025;-58
2023/11/18 04:55:46;;;;;;;64.10;7.82;;;;;;;;;;5007068;28;20040;-58
2023/11/18 04:58:11;;;;;;;76.43;8.65;;;;;;;;;;5007603;28;20026;-57
2023/11/18 05:00:41;;;;;;;123.82;11.02;;;;;;;;;;5006587;28;20105;-57
2023/11/18 05:03:09;;;;;;;82.15;8.30;;;;;;;;;;5007748;28;20448;-57
2023/11/18 05:05:37;;;;;;;127.88;10.75;;;;;;;;;;5013236;28;20045;-57
2023/11/18 05:08:03;;;;;;;107.82;9.02;;;;;;;;;;5007995;28;20017;-56
2023/11/18 05:10:28;;;;;;;130.23;10.20;;;;;;;;;;5006414;28;20052;-56
2023/11/18 05:12:55;;;;;;;81.47;8.68;;;;;;;;;;5007713;28;20030;-56
2023/11/18 05:15:24;;;;;;;102.07;8.70;;;;;;;;;;5009467;28;20033;-57
2023/11/18 05:17:50;;;;;;;67.47;7.95;;;;;;;;;;5008401;28;20046;-57
2023/11/18 05:20:16;;;;;;;62.25;7.47;;;;;;;;;;5008974;28;20084;-57
2023/11/18 05:22:41;;;;;;;143.27;10.85;;;;;;;;;;5005621;28;20022;-57
2023/11/18 05:25:07;;;;;;;56.03;7.50;;;;;;;;;;5008466;28;20017;-58
2023/11/18 05:27:33;;;;;;;105.22;9.52;;;;;;;;;;5007685;28;20128;-56
2023/11/18 05:29:59;;;;;;;77.40;8.45;;;;;;;;;;5007459;28;20120;-58
2023/11/18 05:32:27;;;;;;;119.35;9.73;;;;;;;;;;5009063;28;20137;-57
2023/11/18 05:34:54;;;;;;;64.47;7.55;;;;;;;;;;5012296;28;20018;-58
2023/11/18 05:37:20;;;;;;;72.13;8.65;;;;;;;;;;5012358;28;20520;-58
2023/11/18 05:39:46;;;;;;;84.93;8.57;;;;;;;;;;5010119;28;20084;-57
2023/11/18 05:42:11;;;;;;;55.85;7.05;;;;;;;;;;5010304;28;20061;-57
2023/11/18 05:44:39;;;;;;;127.55;10.80;;;;;;;;;;5009990;28;20025;-58
2023/11/18 05:47:04;;;;;;;98.78;8.18;;;;;;;;;;5011967;28;20064;-57
2023/11/18 05:49:29;;;;;;;108.53;10.00;;;;;;;;;;5010284;28;20026;-57
2023/11/18 05:51:56;;;;;;;74.75;8.15;;;;;;;;;;5012104;28;20040;-57
2023/11/18 05:54:21;;;;;;;127.28;10.52;;;;;;;;;;5010586;28;20032;-56
2023/11/18 05:56:46;;;;;;;67.05;7.40;;;;;;;;;;5011729;28;20029;-57
2023/11/18 05:59:13;;;;;;;66.47;7.70;;;;;;;;;;5011922;28;20678;-58
2023/11/18 06:01:38;;;;;;;142.43;9.48;;;;;;;;;;5010799;28;20402;-57
2023/11/18 06:04:04;;;;;;;81.93;8.68;;;;;;;;;;5009331;28;20548;-57
2023/11/18 06:06:31;;;;;;;110.80;10.18;;;;;;;;;;5010544;28;20168;-58
2023/11/18 06:09:04;;;;;;;100.15;8.20;;;;;;;;;;5011791;28;20111;-58
2023/11/18 06:11:31;;;;;;;94.68;8.73;;;;;;;;;;5010026;28;20038;-57
2023/11/18 06:13:56;;;;;;;73.53;8.48;;;;;;;;;;5011912;28;20052;-58
2023/11/18 06:16:24;;;;;;;111.82;10.20;;;;;;;;;;5011267;28;20069;-56
2023/11/18 06:18:50;;;;;;;65.35;7.63;;;;;;;;;;5010005;28;20022;-57
2023/11/18 06:21:20;;;;;;;77.82;8.85;;;;;;;;;;5010318;28;20026;-57
2023/11/18 06:23:45;;;;;;;154.00;11.63;;;;;;;;;;5010343;28;20481;-58
2023/11/18 06:26:11;;;;;;;83.95;7.00;;;;;;;;;;5012036;28;20057;-54
2023/11/18 06:28:38;;;;;;;126.50;10.75;;;;;;;;;;5010210;28;20101;-56
2023/11/18 06:31:03;;;;;;;87.13;6.78;;;;;;;;;;5009965;28;20048;-56
2023/11/18 06:33:29;;;;;;;102.05;9.63;;;;;;;;;;5008973;28;20037;-56
2023/11/18 06:35:55;;;;;;;80.63;8.57;;;;;;;;;;5008155;28;20030;-56
2023/11/18 06:38:20;;;;;;;69.38;7.60;;;;;;;;;;5009285;28;20599;-57
2023/11/18 06:40:46;;;;;;;109.15;9.70;;;;;;;;;;5005947;28;21645;-57
2023/11/18 06:43:11;;;;;;;125.05;10.70;;;;;;;;;;5010114;28;20438;-56
2023/11/18 06:45:37;;;;;;;170.50;12.18;;;;;;;;;;5008180;28;20034;-57
2023/11/18 06:48:06;;;;;;;114.38;10.38;;;;;;;;;;5010445;28;20056;-56
2023/11/18 06:50:31;;;;;;;115.85;9.52;;;;;;;;;;5007594;28;20045;-55
2023/11/18 06:52:57;;;;;;;88.78;9.88;;;;;;;;;;5009833;28;20026;-56
2023/11/18 06:55:22;;;;;;;139.23;12.13;;;;;;;;;;5008871;28;20018;-56
2023/11/18 06:57:47;;;;;;;86.38;10.57;;;;;;;;;;5008861;28;20026;-57
2023/11/18 07:00:15;;;;;;;87.97;10.10;;;;;;;;;;5009775;28;20024;-57
2023/11/18 07:02:40;;;;;;;159.95;13.73;;;;;;;;;;5007750;28;20014;-57
2023/11/18 07:05:05;;;;;;;88.93;10.45;;;;;;;;;;5008745;28;20293;-56
2023/11/18 07:07:32;;;;;;;109.30;11.18;;;;;;;;;;5008382;28;20072;-55
2023/11/18 07:09:57;;;;;;;102.72;12.38;;;;;;;;;;5011353;28;20512;-56
2023/11/18 07:12:22;;;;;;;140.32;13.68;;;;;;;;;;5008307;28;20073;-56
2023/11/18 07:14:48;;;;;;;92.72;10.90;;;;;;;;;;5009643;28;21476;-56
2023/11/18 07:17:13;;;;;;;104.13;11.57;;;;;;;;;;5010715;28;20379;-56
2023/11/18 07:19:38;;;;;;;183.63;14.02;;;;;;;;;;5008780;28;20448;-56
2023/11/18 07:22:06;;;;;;;93.75;9.65;;;;;;;;;;5009154;28;20014;-57
2023/11/18 07:24:31;;;;;;;69.80;6.43;;;;;;;;;;5009971;28;20390;-55
2023/11/18 07:26:59;;;;;;;104.60;8.10;;;;;;;;;;5009184;28;20040;-56
2023/11/18 07:29:24;;;;;;;77.80;10.32;;;;;;;;;;5010050;28;20014;-57
2023/11/18 07:31:50;;;;;;;101.90;12.45;;;;;;;;;;5006365;28;20049;-56
2023/11/18 07:34:15;;;;;;;110.60;11.52;;;;;;;;;;5008931;28;20034;-56
2023/11/18 07:36:40;;;;;;;121.40;8.50;;;;;;;;;;5007013;28;20033;-56
2023/11/18 07:39:15;;;;;;;71.85;7.20;;;;;;;;;;5007825;28;20440;-57
2023/11/18 07:41:40;;;;;;;183.05;13.40;;;;;;;;;;5007737;28;20037;-56
2023/11/18 07:44:06;;;;;;;70.85;7.85;;;;;;;;;;5011628;28;20017;-56
2023/11/18 07:46:31;;;;;;;77.43;10.25;;;;;;;;;;5007238;28;20041;-58
2023/11/18 07:48:56;;;;;;;86.05;6.40;;;;;;;;;;5010063;28;20078;-57
2023/11/18 07:51:22;;;;;;;91.45;6.18;;;;;;;;;;5009238;28;20390;-57
2023/11/18 07:53:48;;;;;;;125.00;11.30;;;;;;;;;;5006234;28;20018;-56
2023/11/18 07:56:14;;;;;;;89.18;11.30;;;;;;;;;;5009446;28;20038;-57
2023/11/18 07:58:45;;;;;;;121.47;8.82;;;;;;;;;;5008286;28;20095;-57
2023/11/18 08:01:10;;;;;;;86.72;10.27;;;;;;;;;;5008662;28;20333;-56
2023/11/18 08:03:37;;;;;;;119.38;11.95;;;;;;;;;;5008559;28;20044;-57
2023/11/18 08:06:02;;;;;;;80.18;8.23;;;;;;;;;;5008972;28;20255;-56
2023/11/18 08:08:28;;;;;;;92.38;11.50;;;;;;;;;;5008475;28;20097;-57
2023/11/18 08:10:55;;;;;;;61.35;6.55;;;;;;;;;;5007113;28;20025;-59
2023/11/18 08:13:21;;;;;;;120.88;12.48;;;;;;;;;;5008913;28;20505;-57
2023/11/18 08:15:46;;;;;;;119.57;12.18;;;;;;;;;;5007117;28;20033;-57
2023/11/18 08:18:12;;;;;;;93.65;12.57;;;;;;;;;;5009465;28;20389;-57
2023/11/18 08:20:37;;;;;;;78.63;9.85;;;;;;;;;;5007844;28;20022;-57
2023/11/18 08:23:04;;;;;;;124.25;13.35;;;;;;;;;;5009234;28;20021;-57
2023/11/18 08:25:29;;;;;;;59.40;9.18;;;;;;;;;;5007739;28;20029;-57
2023/11/18 08:27:55;;;;;;;59.28;8.75;;;;;;;;;;5006694;28;20462;-57
2023/11/18 08:30:20;;;;;;;102.03;12.23;;;;;;;;;;5006743;28;20436;-56
2023/11/18 08:32:46;;;;;;;119.70;8.63;;;;;;;;;;5006899;28;20014;-57
2023/11/18 08:35:15;;;;;;;49.70;5.90;;;;;;;;;;5007485;28;20541;-56
2023/11/18 08:37:42;;;;;;;127.85;9.57;;;;;;;;;;5007431;28;20040;-57
2023/11/18 08:40:14;;;;;;;94.55;11.98;;;;;;;;;;5006611;28;20018;-56
2023/11/18 08:42:41;;;;;;;123.85;13.23;;;;;;;;;;5007094;28;20041;-58
2023/11/18 08:45:07;;;;;;;102.15;13.38;;;;;;;;;;5008061;28;20021;-56
2023/11/18 08:47:32;;;;;;;91.18;12.20;;;;;;;;;;5005731;28;20060;-57
2023/11/18 08:49:58;;;;;;;59.05;5.53;;;;;;;;;;5005839;28;20075;-56
2023/11/18 08:52:25;;;;;;;109.82;9.13;;;;;;;;;;5005996;28;20041;-57
2023/11/18 08:57:48;;;;;;;100.85;12.18;;;;;;;;;;5007172;28;20041;-57
2023/11/18 09:00:42;;;;;;;79.30;11.65;;;;;;;;;;5008694;28;20036;-58
2023/11/18 09:03:01;;;;;;;89.55;11.45;;;;;;;;;;5008391;28;20277;-57
2023/11/18 09:05:29;;;;;;;90.38;13.63;;;;;;;;;;5008411;28;21339;-57
2023/11/18 09:07:57;;;;;;;79.65;9.80;;;;;;;;;;5009841;28;22207;-58
2023/11/18 09:10:22;;;;;;;112.35;11.43;;;;;;;;;;5011917;28;20025;-58
2023/11/18 09:12:48;;;;;;;108.97;13.30;;;;;;;;;;5009843;28;20382;-59
2023/11/18 09:15:22;;;;;;;76.28;8.20;;;;;;;;;;5010617;28;20017;-58
2023/11/18 09:17:48;;;;;;;141.15;11.63;;;;;;;;;;5008318;28;20034;-57
2023/11/18 09:20:13;;;;;;;78.13;9.52;;;;;;;;;;5010687;28;20049;-57
2023/11/18 09:22:39;;;;;;;142.32;13.27;;;;;;;;;;5009194;28;20147;-57
2023/11/18 09:25:09;;;;;;;92.30;10.27;;;;;;;;;;5011831;28;20061;-57
2023/11/18 09:27:34;;;;;;;78.15;11.45;;;;;;;;;;5010672;28;20495;-57
2023/11/18 09:30:00;;;;;;;130.30;16.60;;;;;;;;;;5009207;28;20088;-57
2023/11/18 09:32:25;;;;;;;127.15;14.27;;;;;;;;;;5010678;28;20049;-57
2023/11/18 09:34:53;;;;;;;127.53;13.88;;;;;;;;;;5009584;28;20021;-57
2023/11/18 09:37:18;;;;;;;87.22;13.77;;;;;;;;;;5008550;28;20096;-57
2023/11/18 09:39:45;;;;;;;124.47;16.33;;;;;;;;;;5007481;28;20299;-58
2023/11/18 09:42:14;;;;;;;75.35;14.25;;;;;;;;;;5011299;28;20484;-55
2023/11/18 09:44:39;;;;;;;88.10;13.95;;;;;;;;;;5011305;28;20018;-55
2023/11/18 09:47:09;;;;;;;64.45;12.02;;;;;;;;;;5009874;28;20044;-57
2023/11/18 09:49:39;;;;;;;61.65;11.07;;;;;;;;;;5009143;28;20014;-57
2023/11/18 09:52:05;;;;;;;94.20;13.02;;;;;;;;;;5008060;28;20532;-57
2023/11/18 09:54:36;;;;;;;79.55;12.18;;;;;;;;;;5008044;28;20116;-56
2023/11/18 09:57:13;;;;;;;50.15;10.38;;;;;;;;;;5006861;28;20076;-56
2023/11/18 09:59:44;;;;;;;53.85;11.20;;;;;;;;;;5009344;28;20025;-57
2023/11/18 10:02:10;;;;;;;63.50;10.93;;;;;;;;;;5009976;28;20113;-57
2023/11/18 10:04:37;;;;;;;92.32;12.15;;;;;;;;;;5012304;28;20104;-57
2023/11/18 10:07:03;;;;;;;67.80;11.15;;;;;;;;;;5008507;28;20125;-58
2023/11/18 10:09:28;;;;;;;54.63;9.10;;;;;;;;;;5011162;28;20063;-56
2023/11/18 10:12:05;;;;;;;132.32;15.35;;;;;;;;;;5007638;28;20034;-56
2023/11/18 10:14:30;;;;;;;71.22;11.90;;;;;;;;;;5007700;28;20374;-56
2023/11/18 10:16:55;;;;;;;111.40;15.05;;;;;;;;;;5006739;28;20040;-57
2023/11/18 10:19:21;;;;;;;85.43;11.95;;;;;;;;;;5009777;28;20021;-57
2023/11/18 10:21:48;;;;;;;106.13;13.52;;;;;;;;;;5010142;28;20033;-57
2023/11/18 10:24:14;;;;;;;63.92;11.15;;;;;;;;;;5010448;28;20452;-56
2023/11/18 10:26:44;;;;;;;66.72;11.77;;;;;;;;;;5007188;28;20723;-56
2023/11/18 10:29:10;;;;;;;54.75;10.13;;;;;;;;;;5007629;28;20025;-57
2023/11/18 10:31:37;;;;;;;76.47;11.25;;;;;;;;;;5011961;28;20460;-56
2023/11/18 10:34:03;;;;;;;82.85;13.10;;;;;;;;;;5009570;28;20033;-56
2023/11/18 10:36:31;;;;;;;62.55;11.18;;;;;;;;;;5008043;28;20475;-56
2023/11/18 10:38:56;;;;;;;118.25;13.65;;;;;;;;;;5007029;28;20084;-55
2023/11/18 10:41:22;;;;;;;81.30;12.13;;;;;;;;;;5008774;28;20033;-55
2023/11/18 10:43:48;;;;;;;86.38;11.90;;;;;;;;;;5008341;28;20788;-55
2023/11/18 10:46:14;;;;;;;79.65;12.00;;;;;;;;;;5009294;28;20685;-56
2023/11/18 10:48:47;;;;;;;70.30;11.55;;;;;;;;;;5008264;28;20030;-56
2023/11/18 10:51:19;;;;;;;76.53;11.88;;;;;;;;;;5007855;28;20041;-55
2023/11/18 10:54:03;;;;;;;105.57;14.32;;;;;;;;;;5007954;28;20072;-56
2023/11/18 10:56:28;;;;;;;60.15;12.20;;;;;;;;;;5007836;28;20642;-55
2023/11/18 10:58:58;;;;;;;96.60;14.50;;;;;;;;;;5007190;28;20096;-56
2023/11/18 11:01:27;;;;;;;78.20;13.98;;;;;;;;;;5008214;28;20056;-55
2023/11/18 11:03:55;;;;;;;102.32;14.45;;;;;;;;;;5006230;28;20047;-54
2023/11/18 11:06:23;;;;;;;88.65;13.57;;;;;;;;;;5008246;28;20406;-55
2023/11/18 11:08:48;;;;;;;110.32;14.90;;;;;;;;;;5008023;28;20022;-55
2023/11/18 11:11:16;;;;;;;87.22;13.90;;;;;;;;;;5008107;28;20052;-55
2023/11/18 11:13:43;;;;;;;79.55;14.75;;;;;;;;;;5008437;28;20032;-55
2023/11/18 11:16:10;;;;;;;72.47;13.82;;;;;;;;;;5006708;28;20026;-56
2023/11/18 11:18:39;;;;;;;89.07;13.18;;;;;;;;;;5007297;28;20029;-55
2023/11/18 11:21:07;;;;;;;129.98;15.20;;;;;;;;;;5000151;28;20278;-55
2023/11/18 11:23:53;;;;;;;74.93;12.85;;;;;;;;;;5004660;28;20038;-55
2023/11/18 11:26:28;;;;;;;114.18;14.68;;;;;;;;;;5005850;28;20047;-56
2023/11/18 11:29:07;;;;;;;124.80;16.23;;;;;;;;;;5002084;28;20036;-56
2023/11/18 11:31:40;;;;;;;101.75;11.65;;;;;;;;;;5006002;28;20034;-55
2023/11/18 11:34:06;;;;;;;;;;;;;;;;;;5004706;28;20014;-58
2023/11/18 11:36:42;;;;;;;82.60;12.75;;;;;;;;;;5004679;28;20183;-57
2023/11/18 11:39:14;;;;;;;108.20;14.70;;;;;;;;;;5005982;28;20028;-56
2023/11/18 11:41:44;;;;;;;98.10;14.07;;;;;;;;;;5006023;28;20034;-57
2023/11/18 11:44:09;;;;;;;64.03;11.60;;;;;;;;;;5004117;28;20468;-56
2023/11/18 11:46:37;;;;;;;69.47;14.13;;;;;;;;;;5005127;28;20485;-54
2023/11/18 11:49:12;;;;;;;136.40;18.25;;;;;;;;;;5003531;28;20045;-54
2023/11/18 11:51:43;;;;;;;111.13;15.60;;;;;;;;;;5004161;28;20365;-56
2023/11/18 11:54:15;;;;;;;66.20;12.35;;;;;;;;;;5003269;28;20318;-55
2023/11/18 11:56:52;;;;;;;60.00;12.70;;;;;;;;;;5006374;28;20591;-55
2023/11/18 11:59:17;;;;;;;78.88;12.55;;;;;;;;;;5008179;28;20018;-55
2023/11/18 12:01:48;;;;;;;104.50;12.68;;;;;;;;;;5004254;28;20116;-55
2023/11/18 12:04:28;;;;;;;72.57;10.80;;;;;;;;;;5005377;28;20428;-55
2023/11/18 12:06:56;;;;;;;123.63;13.45;;;;;;;;;;5005023;28;20087;-56
2023/11/18 12:09:21;;;;;;;106.13;13.05;;;;;;;;;;5007053;28;20056;-55
2023/11/18 12:11:49;;;;;;;97.72;12.77;;;;;;;;;;5004657;28;20060;-55
2023/11/18 12:17:00;;;;;;;74.85;10.80;;;;;;;;;;5006222;28;20122;-56
2023/11/18 12:19:30;;;;;;;92.18;11.07;;;;;;;;;;5013658;28;20112;-57
2023/11/18 12:21:56;;;;;;;110.50;13.02;;;;;;;;;;5003194;28;20502;-56
2023/11/18 12:24:22;;;;;;;48.53;9.43;;;;;;;;;;5008456;28;20053;-57
2023/11/18 12:26:49;;;;;;;74.63;10.05;;;;;;;;;;5003217;28;20563;-58
2023/11/18 12:29:31;;;;;;;82.90;10.75;;;;;;;;;;5007394;28;20469;-56
2023/11/18 12:31:57;;;;;;;115.37;13.20;;;;;;;;;;5011308;28;20532;-57
2023/11/18 12:34:23;;;;;;;76.78;10.30;;;;;;;;;;5003661;28;20276;-56
2023/11/18 12:37:10;;;;;;;55.65;9.30;;;;;;;;;;5003558;28;20037;-56
2023/11/18 12:39:37;;;;;;;85.45;11.20;;;;;;;;;;4992351;28;20116;-56
2023/11/18 12:42:11;;;;;;;94.00;11.68;;;;;;;;;;5001686;28;20029;-56
2023/11/18 12:44:39;;;;;;;99.90;11.70;;;;;;;;;;5001421;28;20548;-57
2023/11/18 12:47:28;;;;;;;136.27;14.38;;;;;;;;;;5001662;28;20034;-56
2023/11/18 12:49:54;;;;;;;109.88;13.10;;;;;;;;;;5001931;28;20072;-57
2023/11/18 12:52:21;;;;;;;90.22;11.43;;;;;;;;;;5003704;28;20033;-55
2023/11/18 12:54:50;;;;;;;80.07;10.98;;;;;;;;;;5006534;28;20014;-55
2023/11/18 12:57:16;;;;;;;110.93;11.80;;;;;;;;;;5004782;28;20478;-56
2023/11/18 12:59:42;;;;;;;69.50;9.00;;;;;;;;;;5005697;28;20049;-54
2023/11/18 13:02:18;;;;;;;99.88;12.02;;;;;;;;;;5002788;28;20022;-55
2023/11/18 13:04:47;;;;;;;80.93;10.25;;;;;;;;;;5003244;28;20413;-57
2023/11/18 13:07:13;;;;;;;80.90;10.50;;;;;;;;;;5004054;28;20034;-57
2023/11/18 13:09:40;;;;;;;72.10;9.65;;;;;;;;;;5006159;28;20211;-56
2023/11/18 13:12:08;;;;;;;149.32;14.85;;;;;;;;;;5001978;28;20038;-56
2023/11/18 13:14:35;;;;;;;67.00;9.00;;;;;;;;;;5006378;28;20080;-54
2023/11/18 13:17:05;;;;;;;115.15;11.07;;;;;;;;;;5002589;28;20026;-54
2023/11/18 13:19:32;;;;;;;64.03;8.93;;;;;;;;;;5005683;28;20025;-57
2023/11/18 13:22:04;;;;;;;118.32;13.15;;;;;;;;;;5002822;28;20033;-56
2023/11/18 13:24:32;;;;;;;80.43;10.10;;;;;;;;;;5003218;28;20072;-56
2023/11/18 13:27:03;;;;;;;110.88;10.75;;;;;;;;;;5001047;28;20026;-56
2023/11/18 13:29:29;;;;;;;49.40;6.95;;;;;;;;;;5003454;28;20026;-57
2023/11/18 13:31:56;;;;;;;100.00;10.70;;;;;;;;;;4999775;28;20119;-55
2023/11/18 13:34:21;;;;;;;66.93;8.15;;;;;;;;;;5004519;28;20029;-57
2023/11/18 13:36:47;;;;;;;80.53;8.73;;;;;;;;;;5001360;28;20398;-57
2023/11/18 13:39:19;;;;;;;81.43;9.07;;;;;;;;;;5001956;28;20025;-57
2023/11/18 13:41:48;;;;;;;90.50;8.38;;;;;;;;;;5004531;28;20116;-58
2023/11/18 13:44:33;;;;;;;70.07;8.32;;;;;;;;;;5003095;28;20061;-56
2023/11/18 13:46:59;;;;;;;138.95;12.30;;;;;;;;;;5001307;28;20034;-57
2023/11/18 13:49:27;;;;;;;90.22;9.40;;;;;;;;;;5004429;28;20080;-57
2023/11/18 13:51:52;;;;;;;81.10;8.02;;;;;;;;;;5001429;28;20033;-56
2023/11/18 13:54:18;;;;;;;76.55;7.55;;;;;;;;;;5008859;28;20030;-56
2023/11/18 13:56:43;;;;;;;39.80;6.20;;;;;;;;;;5007388;28;20065;-56
2023/11/18 13:59:09;;;;;;;93.80;9.50;;;;;;;;;;5005331;28;20018;-57
2023/11/18 14:01:35;;;;;;;77.38;7.93;;;;;;;;;;5008454;28;20452;-57
2023/11/18 14:04:04;;;;;;;77.53;7.97;;;;;;;;;;5010254;28;20029;-57
2023/11/18 14:06:30;;;;;;;73.47;7.10;;;;;;;;;;5007143;28;20095;-57
2023/11/18 14:08:55;;;;;;;122.65;9.82;;;;;;;;;;5008946;28;20053;-57
2023/11/18 14:11:21;;;;;;;91.20;8.13;;;;;;;;;;5008591;28;20112;-55
2023/11/18 14:13:46;;;;;;;82.60;7.22;;;;;;;;;;5009258;28;20280;-55
2023/11/18 14:16:12;;;;;;;111.20;8.60;;;;;;;;;;5008215;28;20489;-55
2023/11/18 14:18:41;;;;;;;68.05;6.43;;;;;;;;;;5008750;28;20481;-57
2023/11/18 14:21:06;;;;;;;96.43;8.50;;;;;;;;;;5005804;28;20913;-57